Time;durP1;ratioP1;P1;durP2;ratioP2;P2;SDS_P1;SDS_P2;PMS_P1;PMS_P2;Temp;Humidity;BMP_temperature;BMP_pressure;BME280_temperature;BME280_humidity;BME280_pressure;Samples;Min_cycle;Max_cycle;Signal;HPM_P1;HPM_P2
2023/01/25 00:00:47;;;;;;;23.63;8.63;;;;;;;-5.30;100.00;103037.69;5059082;28;20075;-52
2023/01/25 00:03:13;;;;;;;23.77;9.63;;;;;;;-5.30;100.00;103022.16;5061488;28;20029;-51
2023/01/25 00:05:38;;;;;;;23.40;10.15;;;;;;;-5.31;100.00;103023.06;5058663;28;20032;-53
2023/01/25 00:08:04;;;;;;;31.42;11.85;;;;;;;-5.36;100.00;103017.13;5054239;28;20065;-52
2023/01/25 00:10:29;;;;;;;28.33;11.30;;;;;;;-5.41;100.00;103014.59;5059973;28;20033;-55
2023/01/25 00:12:55;;;;;;;29.45;11.82;;;;;;;-5.42;100.00;103010.31;5062998;28;20021;-53
2023/01/25 00:15:21;;;;;;;20.45;8.50;;;;;;;-5.36;100.00;103017.13;5056605;28;20056;-51
2023/01/25 00:17:46;;;;;;;21.48;9.40;;;;;;;-5.34;100.00;103003.28;5062983;28;20477;-53
2023/01/25 00:20:12;;;;;;;27.73;10.20;;;;;;;-5.34;100.00;103005.88;5052690;28;20071;-53
2023/01/25 00:22:37;;;;;;;27.10;9.82;;;;;;;-5.38;100.00;103006.78;5065804;28;20046;-52
2023/01/25 00:25:03;;;;;;;32.38;10.88;;;;;;;-5.38;100.00;102999.03;5058710;28;20032;-53
2023/01/25 00:27:28;;;;;;;22.90;8.35;;;;;;;-5.38;100.00;102999.03;5060753;28;20025;-54
2023/01/25 00:29:53;;;;;;;21.63;8.50;;;;;;;-5.36;100.00;102996.44;5069100;28;20032;-52
2023/01/25 00:32:19;;;;;;;18.02;7.55;;;;;;;-5.34;100.00;103003.28;5065219;28;20063;-53
2023/01/25 00:34:46;;;;;;;25.52;10.02;;;;;;;-5.36;100.00;103004.19;5063206;28;20376;-53
2023/01/25 00:37:18;;;;;;;24.60;10.50;;;;;;;-5.30;100.00;103010.09;5057310;28;20040;-53
2023/01/25 00:39:44;;;;;;;31.38;10.70;;;;;;;-5.27;100.00;103001.41;5061891;28;20033;-50
2023/01/25 00:42:10;;;;;;;22.80;10.45;;;;;;;-5.28;100.00;103010.06;5066289;28;20060;-52
2023/01/25 00:44:36;;;;;;;31.27;12.40;;;;;;;-5.28;100.00;103004.91;5060835;28;20527;-51
2023/01/25 00:47:01;;;;;;;19.98;9.82;;;;;;;-5.34;100.00;103005.03;5068539;28;20631;-56
2023/01/25 00:49:29;;;;;;;25.20;11.55;;;;;;;-5.35;100.00;102998.97;5059990;28;20123;-54
2023/01/25 00:51:55;;;;;;;26.20;10.48;;;;;;;-5.38;100.00;102993.84;5062487;28;20037;-52
2023/01/25 00:54:21;;;;;;;28.85;10.20;;;;;;;-5.38;100.00;102987.84;5056776;28;20500;-53
2023/01/25 00:56:47;;;;;;;23.05;8.13;;;;;;;-5.42;100.00;102981.00;5055479;28;20497;-51
2023/01/25 00:59:13;;;;;;;28.35;8.98;;;;;;;-5.47;100.00;102988.84;5062922;28;20037;-51
2023/01/25 01:01:42;;;;;;;27.20;9.20;;;;;;;-5.51;100.00;102982.03;5058187;28;20032;-52
2023/01/25 01:04:07;;;;;;;22.15;9.45;;;;;;;-5.50;100.00;102983.72;5064540;28;20036;-53
2023/01/25 01:06:42;;;;;;;24.65;10.48;;;;;;;-5.50;100.00;102979.44;5059773;28;20085;-54
2023/01/25 01:09:13;;;;;;;31.33;10.15;;;;;;;-5.51;100.00;102984.59;5059140;28;20033;-52
2023/01/25 01:11:38;;;;;;;26.85;9.13;;;;;;;-5.55;100.00;102975.19;5069036;28;20058;-52
2023/01/25 01:14:04;;;;;;;26.42;9.52;;;;;;;-5.55;100.00;102981.22;5060256;28;20115;-55
2023/01/25 01:16:29;;;;;;;22.27;10.27;;;;;;;-5.49;100.00;102981.13;5064979;28;20117;-53
2023/01/25 01:18:55;;;;;;;26.10;9.55;;;;;;;-5.43;100.00;102977.56;5056271;28;20029;-50
2023/01/25 01:21:20;;;;;;;22.88;9.35;;;;;;;-5.44;100.00;102980.19;5059613;28;20171;-52
2023/01/25 01:23:46;;;;;;;24.60;10.40;;;;;;;-5.44;100.00;102968.13;5066404;28;20044;-55
2023/01/25 01:26:14;;;;;;;17.85;8.25;;;;;;;-5.43;100.00;102969.81;5067119;28;20284;-54
2023/01/25 01:28:40;;;;;;;26.88;10.10;;;;;;;-5.40;100.00;102968.91;5063441;28;20398;-56
2023/01/25 01:31:24;;;;;;;17.20;8.52;;;;;;;-5.38;100.00;102969.72;5062110;28;20090;-51
2023/01/25 01:33:54;;;;;;;14.25;7.53;;;;;;;-5.42;100.00;102963.78;5054310;28;20390;-55
2023/01/25 01:36:22;;;;;;;22.98;8.65;;;;;;;-5.44;100.00;102962.09;5054880;28;20060;-54
2023/01/25 01:38:48;;;;;;;27.75;7.90;;;;;;;-5.46;100.00;102956.09;5055272;28;20103;-55
2023/01/25 01:41:14;;;;;;;28.17;9.48;;;;;;;-5.46;100.00;102958.69;5064482;28;20068;-53
2023/01/25 01:43:40;;;;;;;27.48;11.20;;;;;;;-5.38;100.00;102961.97;5058808;28;20029;-56
2023/01/25 01:46:21;;;;;;;22.52;9.13;;;;;;;-5.28;100.00;102958.34;5056515;28;20025;-55
2023/01/25 01:48:46;;;;;;;25.13;9.82;;;;;;;-5.23;100.00;102953.09;5063996;28;20037;-56
2023/01/25 01:51:39;;;;;;;23.85;10.27;;;;;;;-5.21;100.00;102957.34;5057653;28;20151;-50
2023/01/25 01:54:07;;;;;;;22.55;8.07;;;;;;;-5.31;100.00;102956.66;5063529;28;20020;-56
2023/01/25 01:56:37;;;;;;;17.50;6.53;;;;;;;-5.33;100.00;102955.00;5058170;28;20027;-51
2023/01/25 01:59:05;;;;;;;25.48;9.18;;;;;;;-5.34;100.00;102948.97;5059872;28;20111;-55
2023/01/25 02:01:30;;;;;;;26.30;10.18;;;;;;;-5.29;100.00;102952.31;5060820;28;20063;-56
2023/01/25 02:03:56;;;;;;;24.13;11.13;;;;;;;-5.27;100.00;102960.03;5063843;28;20446;-53
2023/01/25 02:06:51;;;;;;;25.75;10.38;;;;;;;-5.26;100.00;102961.75;5060346;28;20028;-50
2023/01/25 02:09:21;;;;;;;22.83;8.32;;;;;;;-5.33;100.00;102955.84;5057117;28;20297;-53
2023/01/25 02:11:47;;;;;;;19.45;8.48;;;;;;;-5.38;100.00;102957.66;5063186;28;20020;-54
2023/01/25 02:14:13;;;;;;;19.77;7.13;;;;;;;-5.39;100.00;102955.97;5060577;28;20370;-55
2023/01/25 02:16:40;;;;;;;27.90;8.13;;;;;;;-5.34;100.00;102963.66;5061790;28;20032;-54
2023/01/25 02:19:09;;;;;;;29.00;10.75;;;;;;;-5.31;100.00;102963.59;5060286;28;20520;-55
2023/01/25 02:21:43;;;;;;;29.13;8.20;;;;;;;-5.30;100.00;102971.28;5057480;28;20032;-50
2023/01/25 02:24:19;;;;;;;27.23;9.07;;;;;;;-5.20;100.00;102965.97;5057658;28;20024;-50
2023/01/25 02:26:45;;;;;;;19.02;8.90;;;;;;;-5.11;100.00;102961.47;5059940;28;20415;-55
2023/01/25 02:29:11;;;;;;;18.67;7.93;;;;;;;-5.09;100.00;102967.44;5055437;28;20068;-53
2023/01/25 02:31:37;;;;;;;26.52;10.07;;;;;;;-5.04;100.00;102975.13;5060609;28;20040;-52
2023/01/25 02:34:02;;;;;;;23.00;8.25;;;;;;;-4.91;100.00;102967.97;5055418;28;20398;-53
2023/01/25 02:36:33;;;;;;;20.92;9.82;;;;;;;-4.86;100.00;102966.16;5055742;28;20035;-50
2023/01/25 02:39:06;;;;;;;31.65;10.48;;;;;;;-4.79;100.00;102965.16;5060822;28;20493;-54
2023/01/25 02:41:39;;;;;;;21.73;8.98;;;;;;;-4.69;100.00;102958.91;5060887;28;20122;-51
2023/01/25 02:44:11;;;;;;;17.55;7.07;;;;;;;-4.61;100.00;102967.38;5060876;28;20078;-51
2023/01/25 02:46:39;;;;;;;19.50;8.73;;;;;;;-4.45;100.00;102964.44;5056722;28;20025;-55
2023/01/25 02:49:06;;;;;;;19.45;8.80;;;;;;;-4.31;100.00;102967.59;5060629;28;20524;-52
2023/01/25 02:51:34;;;;;;;21.02;8.35;;;;;;;-4.21;100.00;102963.03;5060442;28;20044;-53
2023/01/25 02:54:02;;;;;;;23.70;9.25;;;;;;;-4.11;100.00;102961.94;5051641;28;20020;-51
2023/01/25 02:56:28;;;;;;;23.45;9.80;;;;;;;-4.03;100.00;102959.19;5065207;28;20562;-53
2023/01/25 02:58:54;;;;;;;16.15;8.98;;;;;;;-3.96;100.00;102951.22;5062374;28;20051;-52
2023/01/25 03:01:19;;;;;;;21.77;9.30;;;;;;;-3.86;100.00;102953.59;5050925;28;20048;-54
2023/01/25 03:03:45;;;;;;;25.98;9.85;;;;;;;-3.83;100.00;102948.34;5065353;28;20029;-50
2023/01/25 03:06:10;;;;;;;19.88;8.63;;;;;;;-3.82;100.00;102950.03;5056005;28;20064;-50
2023/01/25 03:08:36;;;;;;;25.85;8.73;;;;;;;-3.80;100.00;102956.03;5057154;28;20380;-53
2023/01/25 03:11:03;;;;;;;21.77;7.55;;;;;;;-3.73;100.00;102950.66;5058513;28;20033;-56
2023/01/25 03:13:30;;;;;;;19.13;8.63;;;;;;;-3.70;100.00;102949.75;5061351;28;20394;-52
2023/01/25 03:16:10;;;;;;;23.23;8.73;;;;;;;-3.67;100.00;102946.22;5047723;28;20903;-56
2023/01/25 03:18:36;;;;;;;22.92;9.10;;;;;;;-3.57;100.00;102947.69;5062819;28;20394;-52
2023/01/25 03:21:28;;;;;;;19.38;8.52;;;;;;;-3.54;100.00;102943.28;5062785;28;20041;-52
2023/01/25 03:23:57;;;;;;;;;;;;;;;-3.45;100.00;102942.19;5058961;28;20048;-53
2023/01/25 03:26:24;;;;;;;25.77;9.60;;;;;;;-3.47;100.00;102937.94;5056284;28;19920;-56
2023/01/25 03:28:49;;;;;;;20.45;6.80;;;;;;;-3.45;100.00;102936.16;5059937;28;20197;-55
2023/01/25 03:31:16;;;;;;;22.55;8.93;;;;;;;-3.43;100.00;102940.41;5053506;28;20449;-52
2023/01/25 03:33:41;;;;;;;23.33;9.38;;;;;;;-3.40;100.00;102935.13;5059315;28;20028;-55
2023/01/25 03:36:08;;;;;;;34.85;10.82;;;;;;;-3.40;100.00;102929.09;5057533;28;20086;-54
2023/01/25 03:38:34;;;;;;;25.50;9.70;;;;;;;-3.39;100.00;102926.44;5052934;28;20457;-55
2023/01/25 03:41:00;;;;;;;36.25;11.50;;;;;;;-3.36;100.00;102931.56;5055289;28;20090;-54
2023/01/25 03:43:26;;;;;;;24.83;9.48;;;;;;;-3.31;100.00;102927.09;5055803;28;20037;-53
2023/01/25 03:45:57;;;;;;;24.05;9.65;;;;;;;-3.24;100.00;102924.34;5058977;28;20103;-52
2023/01/25 03:48:24;;;;;;;32.60;10.27;;;;;;;-3.17;100.00;102925.91;5057286;28;20029;-52
2023/01/25 03:50:55;;;;;;;36.42;10.45;;;;;;;-3.13;100.00;102927.50;5062396;28;20033;-54
2023/01/25 03:53:27;;;;;;;;;;;;;;;-3.05;100.00;102928.13;5063160;28;20025;-55
2023/01/25 03:56:02;;;;;;;28.75;10.07;;;;;;;-3.07;100.00;102922.16;5060017;28;19924;-53
2023/01/25 03:58:28;;;;;;;62.47;12.00;;;;;;;-3.09;100.00;102927.38;5067844;28;20024;-52
2023/01/25 04:00:55;;;;;;;29.63;10.52;;;;;;;-2.99;100.00;102917.59;5065053;28;20464;-51
2023/01/25 04:03:21;;;;;;;44.85;12.18;;;;;;;-3.03;100.00;102918.56;5063369;28;20498;-55
2023/01/25 04:05:46;;;;;;;32.67;10.13;;;;;;;-2.98;100.00;102916.69;5059383;28;20103;-56
2023/01/25 04:08:12;;;;;;;30.52;11.93;;;;;;;-2.93;100.00;102921.75;5067364;28;20068;-56
2023/01/25 04:10:38;;;;;;;50.83;13.88;;;;;;;-2.91;100.00;102922.56;5063032;28;20077;-56
2023/01/25 04:13:03;;;;;;;52.63;12.68;;;;;;;-2.88;100.00;102922.47;5065798;28;20519;-54
2023/01/25 04:15:28;;;;;;;36.53;11.55;;;;;;;-2.83;100.00;102920.59;5061131;28;20501;-52
2023/01/25 04:17:55;;;;;;;34.03;12.77;;;;;;;-2.76;100.00;102921.25;5067571;28;20043;-53
2023/01/25 04:20:20;;;;;;;36.20;11.40;;;;;;;-2.68;100.00;102921.91;5058641;28;20085;-54
2023/01/25 04:22:46;;;;;;;48.05;13.15;;;;;;;-2.66;100.00;102920.94;5058178;28;20024;-53
2023/01/25 04:25:11;;;;;;;57.58;16.13;;;;;;;-2.65;100.00;102922.66;5055557;28;20029;-53
2023/01/25 04:27:36;;;;;;;39.40;10.50;;;;;;;-2.61;100.00;102919.94;5067390;28;20433;-53
2023/01/25 04:30:02;;;;;;;52.83;16.58;;;;;;;-2.59;100.00;102919.00;5061176;28;20032;-52
2023/01/25 04:32:27;;;;;;;65.35;15.07;;;;;;;-2.58;100.00;102925.03;5062161;28;20710;-53
2023/01/25 04:34:53;;;;;;;57.63;15.02;;;;;;;-2.53;100.00;102918.84;5056735;28;20025;-54
2023/01/25 04:37:18;;;;;;;56.72;14.25;;;;;;;-2.53;100.00;102918.84;5060127;28;20065;-53
2023/01/25 04:39:43;;;;;;;55.42;14.35;;;;;;;-2.48;100.00;102924.75;5060865;28;20032;-56
2023/01/25 04:42:09;;;;;;;56.30;14.13;;;;;;;-2.45;100.00;102922.06;5054348;28;20049;-54
2023/01/25 04:44:34;;;;;;;52.50;15.35;;;;;;;-2.34;100.00;102926.06;5057581;28;20427;-53
2023/01/25 04:46:59;;;;;;;51.90;15.70;;;;;;;-2.34;100.00;102918.28;5059646;28;20464;-54
2023/01/25 04:49:25;;;;;;;58.05;15.25;;;;;;;-2.31;100.00;102921.63;5057078;28;20092;-50
2023/01/25 04:51:50;;;;;;;72.60;19.40;;;;;;;-2.26;100.00;102911.94;5067317;28;20032;-51
2023/01/25 04:54:15;;;;;;;60.78;16.98;;;;;;;-2.24;100.00;102919.69;5066036;28;20037;-54
2023/01/25 04:56:41;;;;;;;54.22;16.73;;;;;;;-2.17;100.00;102920.31;5060831;28;20476;-53
2023/01/25 04:59:06;;;;;;;42.78;13.10;;;;;;;-2.15;100.00;102916.78;5059320;28;20485;-51
2023/01/25 05:01:32;;;;;;;65.95;16.23;;;;;;;-2.10;100.00;102917.47;5063134;28;20537;-53
2023/01/25 05:03:58;;;;;;;60.40;15.50;;;;;;;-2.06;100.00;102916.50;5062322;28;20453;-49
2023/01/25 05:06:24;;;;;;;51.13;13.95;;;;;;;-1.98;100.00;102918.84;5057514;28;20520;-51
2023/01/25 05:08:49;;;;;;;40.90;11.20;;;;;;;-1.87;100.00;102919.34;5056696;28;20036;-52
2023/01/25 05:11:14;;;;;;;35.67;12.05;;;;;;;-1.77;100.00;102915.53;5059200;28;20028;-52
2023/01/25 05:13:40;;;;;;;37.20;10.25;;;;;;;-1.67;100.00;102915.22;5059849;28;20483;-51
2023/01/25 05:16:05;;;;;;;38.92;12.90;;;;;;;-1.66;100.00;102919.53;5070858;28;20034;-54
2023/01/25 05:18:31;;;;;;;27.55;10.15;;;;;;;-1.59;100.00;102923.63;5075016;28;20024;-54
2023/01/25 05:20:56;;;;;;;24.90;8.20;;;;;;;-1.44;100.00;102911.84;5071850;28;20819;-56
2023/01/25 05:23:22;;;;;;;25.10;8.73;;;;;;;-1.33;100.00;102920.09;5065058;28;20434;-50
2023/01/25 05:28:31;;;;;;;28.17;11.35;;;;;;;-1.13;100.00;102919.41;5062205;28;20389;-54
2023/01/25 05:30:56;;;;;;;26.92;10.27;;;;;;;-1.12;100.00;102914.13;5061250;28;20341;-54
2023/01/25 05:33:22;;;;;;;28.92;10.35;;;;;;;-1.13;100.00;102912.44;5060882;28;20052;-49
2023/01/25 05:35:47;;;;;;;16.77;8.23;;;;;;;-1.18;100.00;102903.94;5072958;28;20033;-50
2023/01/25 05:38:13;;;;;;;23.92;8.48;;;;;;;-1.11;100.00;102909.75;5074407;28;20036;-52
2023/01/25 05:40:38;;;;;;;17.88;7.55;;;;;;;-1.01;100.00;102916.34;5062482;28;20068;-55
2023/01/25 05:43:03;;;;;;;24.25;8.10;;;;;;;-0.89;100.00;102904.63;5064096;28;20043;-55
2023/01/25 05:45:29;;;;;;;21.13;7.28;;;;;;;-0.86;100.00;102909.72;5066106;28;20032;-55
2023/01/25 05:47:56;;;;;;;23.90;7.93;;;;;;;-0.85;100.00;102901.00;5061159;28;20383;-52
2023/01/25 05:50:23;;;;;;;21.33;8.45;;;;;;;-0.86;100.00;102907.09;5057712;28;20091;-53
2023/01/25 05:52:48;;;;;;;47.65;10.98;;;;;;;-0.88;100.00;102907.19;5058603;28;20089;-52
2023/01/25 05:55:14;;;;;;;16.45;6.15;;;;;;;-0.89;100.00;102899.41;5059165;28;20522;-52
2023/01/25 05:57:39;;;;;;;18.38;7.65;;;;;;;-0.90;100.00;102897.72;5058045;28;20398;-53
2023/01/25 06:00:06;;;;;;;13.73;6.75;;;;;;;-0.94;100.00;102902.19;5055817;28;20024;-56
2023/01/25 06:02:32;;;;;;;18.00;6.15;;;;;;;-0.95;100.00;102903.09;5064627;28;20028;-51
2023/01/25 06:04:57;;;;;;;16.13;5.50;;;;;;;-0.88;100.00;102903.69;5062783;28;20446;-50
2023/01/25 06:07:23;;;;;;;10.68;5.07;;;;;;;-0.84;100.00;102896.66;5062826;28;20043;-56
2023/01/25 06:09:49;;;;;;;15.07;5.65;;;;;;;-0.81;100.00;102893.91;5062680;28;20043;-51
2023/01/25 06:12:15;;;;;;;12.05;5.47;;;;;;;-0.83;100.00;102893.97;5061145;28;20120;-51
2023/01/25 06:14:40;;;;;;;14.73;5.90;;;;;;;-0.88;100.00;102890.69;5061125;28;20040;-54
2023/01/25 06:17:06;;;;;;;18.88;7.05;;;;;;;-0.92;100.00;102886.50;5062538;28;20028;-49
2023/01/25 06:19:31;;;;;;;17.60;7.53;;;;;;;-1.04;100.00;102886.97;5059970;28;20032;-53
2023/01/25 06:21:56;;;;;;;16.15;5.45;;;;;;;-1.07;100.00;102877.50;5054747;28;20056;-51
2023/01/25 06:24:22;;;;;;;24.80;7.72;;;;;;;-1.08;100.00;102875.81;5058735;28;20071;-54
2023/01/25 06:26:47;;;;;;;19.90;6.70;;;;;;;-1.11;100.00;102878.50;5060659;28;20165;-51
2023/01/25 06:29:12;;;;;;;17.33;6.25;;;;;;;-1.07;100.00;102874.91;5056959;28;20140;-52
2023/01/25 06:31:38;;;;;;;13.48;6.03;;;;;;;-1.00;100.00;102871.19;5060471;28;20069;-54
2023/01/25 06:34:05;;;;;;;14.82;5.60;;;;;;;-0.98;100.00;102871.09;5055726;28;20071;-55
2023/01/25 06:36:31;;;;;;;17.77;6.35;;;;;;;-0.94;100.00;102862.28;5057268;28;20021;-52
2023/01/25 06:38:56;;;;;;;17.52;6.63;;;;;;;-0.93;100.00;102857.03;5056269;28;20082;-51
2023/01/25 06:41:22;;;;;;;12.48;4.78;;;;;;;-0.93;100.00;102846.59;5052484;28;20131;-51
2023/01/25 06:43:49;;;;;;;10.60;4.88;;;;;;;-0.98;100.00;102852.88;5056673;28;20119;-51
2023/01/25 06:46:15;;;;;;;17.95;6.57;;;;;;;-0.97;100.00;102846.78;5047392;28;20456;-51
2023/01/25 06:48:41;;;;;;;11.95;6.22;;;;;;;-0.98;100.00;102845.06;5060405;28;20028;-51
2023/01/25 06:51:09;;;;;;;12.63;4.75;;;;;;;-1.00;100.00;102846.91;5052596;28;20029;-53
2023/01/25 06:53:37;;;;;;;23.63;6.50;;;;;;;-0.94;100.00;102844.03;5057927;28;20619;-52
2023/01/25 06:56:22;;;;;;;22.25;6.55;;;;;;;-0.91;100.00;102842.16;5050972;28;20025;-56
2023/01/25 06:58:48;;;;;;;19.90;6.18;;;;;;;-0.88;100.00;102842.06;5055164;28;20489;-50
2023/01/25 07:01:20;;;;;;;20.65;6.88;;;;;;;-0.86;100.00;102842.00;5056001;28;20028;-52
2023/01/25 07:03:53;;;;;;;16.88;6.90;;;;;;;-0.91;100.00;102847.38;5058606;28;20031;-52
2023/01/25 07:06:18;;;;;;;16.77;6.78;;;;;;;-1.00;100.00;102849.50;5053203;28;20039;-52
2023/01/25 07:08:44;;;;;;;19.23;6.40;;;;;;;-0.99;100.00;102838.16;5054304;28;20032;-50
2023/01/25 07:11:12;;;;;;;11.32;4.88;;;;;;;-0.98;100.00;102839.84;5058965;28;20109;-52
2023/01/25 07:13:42;;;;;;;13.45;5.10;;;;;;;-0.90;100.00;102830.84;5052511;28;20032;-56
2023/01/25 07:16:11;;;;;;;12.52;5.28;;;;;;;-0.84;100.00;102819.34;5052967;28;20033;-55
2023/01/25 07:18:37;;;;;;;15.75;5.15;;;;;;;-0.86;100.00;102822.91;5056870;28;20065;-52
2023/01/25 07:21:08;;;;;;;18.20;6.72;;;;;;;-0.93;100.00;102817.94;5050358;28;20060;-50
2023/01/25 07:23:36;;;;;;;18.10;7.07;;;;;;;-0.96;100.00;102825.00;5047742;28;20195;-52
2023/01/25 07:26:03;;;;;;;17.23;6.18;;;;;;;-0.99;100.00;102825.13;5052206;28;20092;-50
2023/01/25 07:28:30;;;;;;;16.52;5.85;;;;;;;-0.59;100.00;102819.22;5060966;28;20485;-51
2023/01/25 07:31:02;;;;;;;17.80;7.50;;;;;;;-0.41;100.00;102808.94;5058849;28;20032;-51
2023/01/25 07:33:27;;;;;;;18.65;6.32;;;;;;;-0.62;100.00;102818.47;5046329;28;20660;-51
2023/01/25 07:35:53;;;;;;;17.48;5.68;;;;;;;-0.81;100.00;102816.59;5047604;28;20136;-51
2023/01/25 07:38:18;;;;;;;20.58;7.05;;;;;;;-0.88;100.00;102823.84;5052283;28;20128;-52
2023/01/25 07:40:50;;;;;;;14.27;5.57;;;;;;;-0.82;100.00;102822.75;5050944;28;20083;-52
2023/01/25 07:43:15;;;;;;;16.48;5.72;;;;;;;-0.80;100.00;102815.72;5052552;28;20045;-51
2023/01/25 07:45:44;;;;;;;13.27;4.45;;;;;;;-0.78;100.00;102816.47;5049907;28;20029;-49
2023/01/25 07:48:09;;;;;;;11.73;5.07;;;;;;;-0.78;100.00;102813.03;5047630;28;20028;-56
2023/01/25 07:50:35;;;;;;;12.52;5.05;;;;;;;-0.77;100.00;102805.19;5050432;28;20074;-53
2023/01/25 07:53:00;;;;;;;17.58;5.45;;;;;;;-0.74;100.00;102805.03;5047585;28;20028;-52
2023/01/25 07:55:25;;;;;;;14.25;6.68;;;;;;;-0.76;100.00;102799.03;5049324;28;20550;-50
2023/01/25 07:57:54;;;;;;;21.23;6.43;;;;;;;-0.84;100.00;102801.09;5050537;28;20478;-52
2023/01/25 08:00:20;;;;;;;14.88;5.47;;;;;;;-0.81;100.00;102797.53;5052769;28;20036;-54
2023/01/25 08:02:49;;;;;;;14.45;5.53;;;;;;;-0.77;100.00;102792.16;5052712;28;20123;-53
2023/01/25 08:05:14;;;;;;;19.50;6.93;;;;;;;-0.76;100.00;102795.59;5046906;28;20041;-55
2023/01/25 08:07:40;;;;;;;17.05;6.50;;;;;;;-0.75;100.00;102786.84;5048008;28;20496;-51
2023/01/25 08:10:06;;;;;;;19.13;7.72;;;;;;;-0.76;100.00;102787.78;5047747;28;20071;-51
2023/01/25 08:12:33;;;;;;;22.95;8.98;;;;;;;-0.82;100.00;102785.44;5052582;28;20029;-51
2023/01/25 08:14:58;;;;;;;19.33;6.75;;;;;;;-0.80;100.00;102789.66;5051447;28;20025;-51
2023/01/25 08:17:30;;;;;;;21.23;6.82;;;;;;;-0.74;100.00;102793.78;5051169;28;20044;-54
2023/01/25 08:19:55;;;;;;;;;;;;;;;-0.60;100.00;102788.00;5045259;28;20028;-56
2023/01/25 08:22:20;;;;;;;20.05;6.63;;;;;;;-0.60;100.00;102790.63;5054039;28;19939;-53
2023/01/25 08:24:46;;;;;;;18.55;7.00;;;;;;;-0.55;100.00;102788.66;5045563;28;20056;-52
2023/01/25 08:27:11;;;;;;;20.33;8.57;;;;;;;-0.49;100.00;102786.69;5057461;28;20067;-50
2023/01/25 08:29:36;;;;;;;19.63;7.25;;;;;;;-0.47;100.00;102794.41;5058943;28;20068;-53
2023/01/25 08:32:03;;;;;;;16.08;6.60;;;;;;;-0.44;100.00;102794.28;5052371;28;20427;-53
2023/01/25 08:34:30;;;;;;;14.82;5.53;;;;;;;-0.44;100.00;102783.84;5060795;28;20156;-50
2023/01/25 08:36:56;;;;;;;17.92;7.07;;;;;;;-0.41;100.00;102775.06;5046801;28;20025;-51
2023/01/25 08:39:21;;;;;;;15.57;6.57;;;;;;;-0.43;100.00;102782.97;5046671;28;21182;-52
2023/01/25 08:41:46;;;;;;;18.00;6.82;;;;;;;-0.36;100.00;102781.81;5031613;28;20409;-53
2023/01/25 08:44:12;;;;;;;16.00;5.97;;;;;;;-0.33;100.00;102784.28;5062999;28;20047;-53
2023/01/25 08:46:37;;;;;;;19.50;6.82;;;;;;;-0.29;100.00;102783.22;5063674;28;20116;-55
2023/01/25 08:49:03;;;;;;;23.85;8.77;;;;;;;-0.25;100.00;102787.41;5063600;28;20040;-54
2023/01/25 08:51:30;;;;;;;18.33;6.78;;;;;;;-0.23;100.00;102785.59;5061020;28;20389;-50
2023/01/25 08:53:56;;;;;;;23.75;10.95;;;;;;;-0.23;100.00;102775.16;5059620;28;20040;-55
2023/01/25 08:56:21;;;;;;;15.82;6.63;;;;;;;-0.22;100.00;102770.78;5061811;28;20029;-52
2023/01/25 08:58:48;;;;;;;24.52;8.18;;;;;;;-0.14;100.00;102778.28;5066965;28;20016;-52
2023/01/25 09:01:15;;;;;;;16.75;8.23;;;;;;;-0.19;100.00;102764.59;5061991;28;20078;-52
2023/01/25 09:03:46;;;;;;;18.35;7.28;;;;;;;-0.19;100.00;102764.59;5057308;28;20025;-52
2023/01/25 09:06:12;;;;;;;21.50;7.72;;;;;;;-0.14;100.00;102758.25;5059246;28;20052;-55
2023/01/25 09:08:38;;;;;;;23.17;8.73;;;;;;;-0.12;100.00;102753.84;5063538;28;20071;-54
2023/01/25 09:11:06;;;;;;;20.50;8.18;;;;;;;-0.08;100.00;102762.38;5054222;28;20060;-56
2023/01/25 09:13:32;;;;;;;28.63;9.25;;;;;;;-0.12;100.00;102746.00;5059328;28;20025;-55
2023/01/25 09:16:08;;;;;;;26.42;10.48;;;;;;;-0.07;100.00;102751.03;5056617;28;20036;-56
2023/01/25 09:18:39;;;;;;;20.02;8.45;;;;;;;-0.02;100.00;102741.25;5057236;28;20028;-52
2023/01/25 09:21:16;;;;;;;21.38;8.43;;;;;;;0.03;100.00;102741.91;5061931;28;20131;-56
2023/01/25 09:23:47;;;;;;;22.92;7.57;;;;;;;0.03;100.00;102738.41;5059397;28;20478;-53
2023/01/25 09:26:14;;;;;;;25.92;9.35;;;;;;;0.01;100.00;102741.13;5062731;28;20020;-52
2023/01/25 09:28:40;;;;;;;24.83;7.85;;;;;;;0.06;100.00;102736.53;5061146;28;20060;-56
2023/01/25 09:31:06;;;;;;;23.10;7.63;;;;;;;0.06;100.00;102728.72;5060741;28;20024;-54
2023/01/25 09:33:37;;;;;;;28.48;9.40;;;;;;;0.08;100.00;102724.28;5057400;28;20115;-52
2023/01/25 09:36:03;;;;;;;21.25;8.30;;;;;;;0.08;100.00;102721.69;5057498;28;20029;-50
2023/01/25 09:38:28;;;;;;;26.30;9.35;;;;;;;0.09;100.00;102714.69;5055811;28;20720;-52
2023/01/25 09:41:03;;;;;;;22.42;8.27;;;;;;;0.09;100.00;102712.09;5060032;28;20036;-53
2023/01/25 09:43:43;;;;;;;21.25;7.25;;;;;;;0.18;100.00;102699.47;5061289;28;20047;-53
2023/01/25 09:46:24;;;;;;;22.52;8.45;;;;;;;0.25;100.00;102692.19;5051189;28;20024;-54
2023/01/25 09:49:02;;;;;;;23.00;8.10;;;;;;;0.27;100.00;102689.53;5049532;28;20028;-48
2023/01/25 09:52:02;;;;;;;25.80;10.20;;;;;;;0.32;100.00;102683.19;5054677;28;20137;-51
2023/01/25 09:54:30;;;;;;;30.10;10.23;;;;;;;0.31;100.00;102681.50;5052064;28;20052;-51
2023/01/25 09:56:57;;;;;;;26.58;9.63;;;;;;;0.36;100.00;102673.44;5063280;28;20028;-52
2023/01/25 09:59:27;;;;;;;29.05;9.27;;;;;;;0.37;100.00;102669.94;5048472;28;20036;-49
2023/01/25 10:01:58;;;;;;;27.58;10.40;;;;;;;0.42;100.00;102668.78;5062227;28;20164;-55
2023/01/25 10:04:31;;;;;;;25.52;8.35;;;;;;;0.42;100.00;102662.72;5049900;28;20109;-54
2023/01/25 10:07:10;;;;;;;25.08;8.68;;;;;;;0.44;100.00;102660.91;5061814;28;20032;-51
2023/01/25 10:09:35;;;;;;;23.33;8.50;;;;;;;0.46;100.00;102653.81;5060325;28;20028;-51
2023/01/25 10:12:22;;;;;;;19.30;7.78;;;;;;;0.52;100.00;102655.31;5058905;28;20028;-49
2023/01/25 10:14:48;;;;;;;21.65;7.70;;;;;;;0.51;100.00;102656.22;5060721;28;20422;-53
2023/01/25 10:17:27;;;;;;;26.42;9.70;;;;;;;0.57;100.00;102648.97;5058461;28;20060;-53
2023/01/25 10:20:24;;;;;;;28.98;10.15;;;;;;;0.61;100.00;102644.44;5058218;28;20099;-53
2023/01/25 10:23:05;;;;;;;20.75;7.15;;;;;;;0.69;100.00;102642.28;5061187;28;20031;-50
2023/01/25 10:25:44;;;;;;;17.20;7.70;;;;;;;0.74;100.00;102639.47;5058427;28;20024;-51
2023/01/25 10:28:27;;;;;;;22.50;8.75;;;;;;;0.72;100.00;102633.47;5059806;28;20033;-55
2023/01/25 10:30:58;;;;;;;22.85;8.98;;;;;;;0.70;100.00;102622.25;5060059;28;20047;-53
2023/01/25 10:33:26;;;;;;;17.23;6.65;;;;;;;0.65;100.00;102617.25;5061618;28;20068;-53
2023/01/25 10:35:54;;;;;;;21.58;8.23;;;;;;;0.68;100.00;102618.88;5060996;28;20119;-52
2023/01/25 10:38:36;;;;;;;20.17;7.82;;;;;;;0.72;100.00;102625.63;5056576;28;20037;-51
2023/01/25 10:41:13;;;;;;;18.88;6.93;;;;;;;0.79;100.00;102621.81;5058757;28;20050;-54
2023/01/25 10:43:39;;;;;;;16.63;7.07;;;;;;;0.79;100.00;102614.81;5062863;28;20399;-51
2023/01/25 10:46:18;;;;;;;21.05;7.97;;;;;;;0.87;100.00;102611.81;5060917;28;20028;-54
2023/01/25 10:48:43;;;;;;;12.77;5.90;;;;;;;0.95;100.00;102609.66;5058003;28;20068;-51
2023/01/25 10:51:08;;;;;;;15.85;6.60;;;;;;;1.07;100.00;102603.84;5059440;28;20199;-49
2023/01/25 10:53:38;;;;;;;18.98;7.10;;;;;;;1.55;100.00;102590.09;5061482;28;20076;-51
2023/01/25 10:56:03;;;;;;;17.20;7.50;;;;;;;1.60;100.00;102585.47;5059384;28;20036;-51
2023/01/25 10:58:40;;;;;;;20.35;7.32;;;;;;;1.63;100.00;102574.88;5062695;28;20036;-51
2023/01/25 11:01:10;;;;;;;18.92;6.63;;;;;;;1.32;100.00;102571.25;5056999;28;20477;-53
2023/01/25 11:03:45;;;;;;;17.83;7.88;;;;;;;1.16;100.00;102565.09;5063550;28;20028;-51
2023/01/25 11:06:11;;;;;;;20.08;7.25;;;;;;;0.99;100.00;102564.19;5060519;28;20024;-52
2023/01/25 11:08:40;;;;;;;24.23;9.02;;;;;;;0.97;100.00;102580.88;5056312;28;20086;-53
2023/01/25 11:11:22;;;;;;;20.05;7.57;;;;;;;0.96;100.00;102585.25;5060707;28;20541;-52
2023/01/25 11:13:47;;;;;;;23.67;8.02;;;;;;;0.87;100.00;102585.69;5058442;28;20033;-51
2023/01/25 11:16:31;;;;;;;20.92;9.00;;;;;;;0.90;100.00;102569.03;5060766;28;20098;-54